sensor_id;sensor_type;location;lat;lon;timestamp;P1;durP1;ratioP1;P2;durP2;ratioP2
17361;SDS011;8798;51.938;4.348;2023-03-14T00:00:17;8.70;;;1.57;;
17361;SDS011;8798;51.938;4.348;2023-03-14T00:02:45;8.33;;;1.60;;
17361;SDS011;8798;51.938;4.348;2023-03-14T00:05:18;3.43;;;1.07;;
17361;SDS011;8798;51.938;4.348;2023-03-14T00:07:46;4.20;;;1.53;;
17361;SDS011;8798;51.938;4.348;2023-03-14T00:10:15;6.47;;;1.10;;
17361;SDS011;8798;51.938;4.348;2023-03-14T00:12:45;4.10;;;1.07;;
17361;SDS011;8798;51.938;4.348;2023-03-14T00:15:13;8.07;;;1.60;;
17361;SDS011;8798;51.938;4.348;2023-03-14T00:17:42;8.57;;;1.27;;
17361;SDS011;8798;51.938;4.348;2023-03-14T00:20:10;6.20;;;1.17;;
17361;SDS011;8798;51.938;4.348;2023-03-14T00:22:39;4.80;;;1.30;;
17361;SDS011;8798;51.938;4.348;2023-03-14T00:25:08;5.33;;;1.10;;
17361;SDS011;8798;51.938;4.348;2023-03-14T00:27:37;5.90;;;1.70;;
17361;SDS011;8798;51.938;4.348;2023-03-14T00:30:07;6.70;;;1.30;;
17361;SDS011;8798;51.938;4.348;2023-03-14T00:32:36;5.87;;;1.23;;
17361;SDS011;8798;51.938;4.348;2023-03-14T00:35:04;4.90;;;1.13;;
17361;SDS011;8798;51.938;4.348;2023-03-14T00:37:32;4.07;;;1.40;;
17361;SDS011;8798;51.938;4.348;2023-03-14T00:40:00;10.13;;;1.40;;
17361;SDS011;8798;51.938;4.348;2023-03-14T00:42:31;8.17;;;1.70;;
17361;SDS011;8798;51.938;4.348;2023-03-14T00:44:59;5.40;;;1.10;;
17361;SDS011;8798;51.938;4.348;2023-03-14T00:47:28;6.97;;;1.07;;
17361;SDS011;8798;51.938;4.348;2023-03-14T00:49:56;8.27;;;1.70;;
17361;SDS011;8798;51.938;4.348;2023-03-14T00:52:24;12.10;;;2.03;;
17361;SDS011;8798;51.938;4.348;2023-03-14T00:54:52;7.60;;;1.53;;
17361;SDS011;8798;51.938;4.348;2023-03-14T00:57:19;10.50;;;1.97;;
17361;SDS011;8798;51.938;4.348;2023-03-14T00:59:47;7.77;;;1.50;;
17361;SDS011;8798;51.938;4.348;2023-03-14T01:02:15;11.03;;;1.63;;
17361;SDS011;8798;51.938;4.348;2023-03-14T01:04:44;7.73;;;1.60;;
17361;SDS011;8798;51.938;4.348;2023-03-14T01:07:14;7.93;;;1.33;;
17361;SDS011;8798;51.938;4.348;2023-03-14T01:09:42;7.20;;;1.57;;
17361;SDS011;8798;51.938;4.348;2023-03-14T01:12:10;9.83;;;1.63;;
17361;SDS011;8798;51.938;4.348;2023-03-14T01:14:38;2.80;;;0.97;;
17361;SDS011;8798;51.938;4.348;2023-03-14T01:17:06;7.43;;;1.67;;
17361;SDS011;8798;51.938;4.348;2023-03-14T01:19:33;6.13;;;1.10;;
17361;SDS011;8798;51.938;4.348;2023-03-14T01:22:03;7.70;;;1.47;;
17361;SDS011;8798;51.938;4.348;2023-03-14T01:24:31;6.47;;;1.37;;
17361;SDS011;8798;51.938;4.348;2023-03-14T01:27:00;6.37;;;1.50;;
17361;SDS011;8798;51.938;4.348;2023-03-14T01:29:28;6.03;;;1.30;;
17361;SDS011;8798;51.938;4.348;2023-03-14T01:31:56;6.57;;;1.40;;
17361;SDS011;8798;51.938;4.348;2023-03-14T01:34:24;11.00;;;1.73;;
17361;SDS011;8798;51.938;4.348;2023-03-14T01:36:52;5.33;;;1.30;;
17361;SDS011;8798;51.938;4.348;2023-03-14T01:39:21;6.53;;;1.50;;
17361;SDS011;8798;51.938;4.348;2023-03-14T01:41:49;6.17;;;1.27;;
17361;SDS011;8798;51.938;4.348;2023-03-14T01:44:17;6.23;;;1.03;;
17361;SDS011;8798;51.938;4.348;2023-03-14T01:46:44;7.67;;;1.70;;
17361;SDS011;8798;51.938;4.348;2023-03-14T01:49:14;6.67;;;1.70;;
17361;SDS011;8798;51.938;4.348;2023-03-14T01:51:49;7.00;;;1.47;;
17361;SDS011;8798;51.938;4.348;2023-03-14T01:54:24;3.30;;;1.23;;
17361;SDS011;8798;51.938;4.348;2023-03-14T01:56:57;2.87;;;1.23;;
17361;SDS011;8798;51.938;4.348;2023-03-14T01:59:30;4.67;;;1.17;;
17361;SDS011;8798;51.938;4.348;2023-03-14T02:02:00;3.43;;;1.23;;
17361;SDS011;8798;51.938;4.348;2023-03-14T02:04:29;4.03;;;1.17;;
17361;SDS011;8798;51.938;4.348;2023-03-14T02:07:00;7.47;;;1.00;;
17361;SDS011;8798;51.938;4.348;2023-03-14T02:09:34;4.60;;;1.17;;
17361;SDS011;8798;51.938;4.348;2023-03-14T02:12:03;6.50;;;1.50;;
17361;SDS011;8798;51.938;4.348;2023-03-14T02:14:33;7.97;;;1.03;;
17361;SDS011;8798;51.938;4.348;2023-03-14T02:17:03;7.87;;;1.67;;
17361;SDS011;8798;51.938;4.348;2023-03-14T02:19:42;3.97;;;1.07;;
17361;SDS011;8798;51.938;4.348;2023-03-14T02:22:22;6.77;;;1.50;;
17361;SDS011;8798;51.938;4.348;2023-03-14T02:24:54;4.10;;;1.00;;
17361;SDS011;8798;51.938;4.348;2023-03-14T02:27:31;4.70;;;1.10;;
17361;SDS011;8798;51.938;4.348;2023-03-14T02:30:01;7.03;;;1.30;;
17361;SDS011;8798;51.938;4.348;2023-03-14T02:32:32;4.40;;;1.20;;
17361;SDS011;8798;51.938;4.348;2023-03-14T02:35:03;5.83;;;1.40;;
17361;SDS011;8798;51.938;4.348;2023-03-14T02:37:37;3.47;;;1.33;;
17361;SDS011;8798;51.938;4.348;2023-03-14T02:40:09;3.33;;;0.80;;
17361;SDS011;8798;51.938;4.348;2023-03-14T02:42:39;4.37;;;1.40;;
17361;SDS011;8798;51.938;4.348;2023-03-14T02:47:59;2.10;;;1.13;;
17361;SDS011;8798;51.938;4.348;2023-03-14T02:50:32;6.60;;;1.40;;
17361;SDS011;8798;51.938;4.348;2023-03-14T02:53:01;9.17;;;1.40;;
17361;SDS011;8798;51.938;4.348;2023-03-14T02:55:29;5.40;;;1.43;;
17361;SDS011;8798;51.938;4.348;2023-03-14T02:57:58;3.87;;;1.13;;
17361;SDS011;8798;51.938;4.348;2023-03-14T03:00:26;5.93;;;1.30;;
17361;SDS011;8798;51.938;4.348;2023-03-14T03:02:54;4.77;;;1.40;;
17361;SDS011;8798;51.938;4.348;2023-03-14T03:05:22;4.80;;;1.53;;
17361;SDS011;8798;51.938;4.348;2023-03-14T03:07:50;2.90;;;1.00;;
17361;SDS011;8798;51.938;4.348;2023-03-14T03:10:18;5.07;;;1.50;;
17361;SDS011;8798;51.938;4.348;2023-03-14T03:12:46;4.70;;;1.10;;
17361;SDS011;8798;51.938;4.348;2023-03-14T03:15:15;6.13;;;1.23;;
17361;SDS011;8798;51.938;4.348;2023-03-14T03:17:43;8.03;;;1.63;;
17361;SDS011;8798;51.938;4.348;2023-03-14T03:20:10;4.60;;;1.73;;
17361;SDS011;8798;51.938;4.348;2023-03-14T03:22:38;7.33;;;1.50;;
17361;SDS011;8798;51.938;4.348;2023-03-14T03:25:07;6.67;;;1.20;;
17361;SDS011;8798;51.938;4.348;2023-03-14T03:27:36;5.27;;;1.30;;
17361;SDS011;8798;51.938;4.348;2023-03-14T03:30:05;8.07;;;1.40;;
17361;SDS011;8798;51.938;4.348;2023-03-14T03:32:35;6.17;;;1.33;;
17361;SDS011;8798;51.938;4.348;2023-03-14T03:35:04;3.77;;;1.30;;
17361;SDS011;8798;51.938;4.348;2023-03-14T03:37:32;8.60;;;1.23;;
17361;SDS011;8798;51.938;4.348;2023-03-14T03:40:01;6.87;;;1.40;;
17361;SDS011;8798;51.938;4.348;2023-03-14T03:42:32;6.73;;;1.20;;
17361;SDS011;8798;51.938;4.348;2023-03-14T03:45:00;8.53;;;1.60;;
17361;SDS011;8798;51.938;4.348;2023-03-14T03:47:29;7.40;;;1.43;;
17361;SDS011;8798;51.938;4.348;2023-03-14T03:49:59;4.77;;;1.03;;
17361;SDS011;8798;51.938;4.348;2023-03-14T03:52:27;6.57;;;1.73;;
17361;SDS011;8798;51.938;4.348;2023-03-14T03:54:55;3.83;;;1.07;;
17361;SDS011;8798;51.938;4.348;2023-03-14T03:57:23;3.87;;;1.50;;
17361;SDS011;8798;51.938;4.348;2023-03-14T03:59:50;5.70;;;1.37;;
17361;SDS011;8798;51.938;4.348;2023-03-14T04:02:18;3.50;;;1.20;;
17361;SDS011;8798;51.938;4.348;2023-03-14T04:04:46;6.13;;;1.37;;
17361;SDS011;8798;51.938;4.348;2023-03-14T04:07:16;3.83;;;1.00;;
17361;SDS011;8798;51.938;4.348;2023-03-14T04:09:44;6.50;;;1.00;;
17361;SDS011;8798;51.938;4.348;2023-03-14T04:12:11;6.53;;;1.30;;
17361;SDS011;8798;51.938;4.348;2023-03-14T04:14:39;4.73;;;1.10;;
17361;SDS011;8798;51.938;4.348;2023-03-14T04:17:07;7.23;;;1.57;;
17361;SDS011;8798;51.938;4.348;2023-03-14T04:19:35;3.53;;;1.10;;
17361;SDS011;8798;51.938;4.348;2023-03-14T04:22:03;5.50;;;1.10;;
17361;SDS011;8798;51.938;4.348;2023-03-14T04:24:32;11.63;;;1.80;;
17361;SDS011;8798;51.938;4.348;2023-03-14T04:27:00;5.33;;;1.20;;
17361;SDS011;8798;51.938;4.348;2023-03-14T04:29:28;4.23;;;1.37;;
17361;SDS011;8798;51.938;4.348;2023-03-14T04:31:56;2.97;;;0.90;;
17361;SDS011;8798;51.938;4.348;2023-03-14T04:34:23;2.97;;;1.10;;
17361;SDS011;8798;51.938;4.348;2023-03-14T04:36:51;3.77;;;1.20;;
17361;SDS011;8798;51.938;4.348;2023-03-14T04:39:19;1.87;;;0.97;;
17361;SDS011;8798;51.938;4.348;2023-03-14T04:41:48;3.97;;;1.20;;
17361;SDS011;8798;51.938;4.348;2023-03-14T04:44:16;3.60;;;1.00;;
17361;SDS011;8798;51.938;4.348;2023-03-14T04:46:44;5.30;;;1.10;;
17361;SDS011;8798;51.938;4.348;2023-03-14T04:49:12;3.70;;;1.10;;
17361;SDS011;8798;51.938;4.348;2023-03-14T04:51:40;6.03;;;1.20;;
17361;SDS011;8798;51.938;4.348;2023-03-14T04:54:07;3.47;;;0.63;;
17361;SDS011;8798;51.938;4.348;2023-03-14T04:56:36;1.93;;;1.00;;
17361;SDS011;8798;51.938;4.348;2023-03-14T04:59:05;2.37;;;0.80;;
17361;SDS011;8798;51.938;4.348;2023-03-14T05:01:34;4.73;;;1.10;;
17361;SDS011;8798;51.938;4.348;2023-03-14T05:04:02;3.57;;;1.07;;
17361;SDS011;8798;51.938;4.348;2023-03-14T05:06:30;4.00;;;1.10;;
17361;SDS011;8798;51.938;4.348;2023-03-14T05:08:58;2.00;;;0.90;;
17361;SDS011;8798;51.938;4.348;2023-03-14T05:11:26;5.03;;;1.40;;
17361;SDS011;8798;51.938;4.348;2023-03-14T05:13:54;4.97;;;1.00;;
17361;SDS011;8798;51.938;4.348;2023-03-14T05:16:23;3.40;;;1.00;;
17361;SDS011;8798;51.938;4.348;2023-03-14T05:18:51;2.47;;;1.00;;
17361;SDS011;8798;51.938;4.348;2023-03-14T05:21:19;2.70;;;0.90;;
17361;SDS011;8798;51.938;4.348;2023-03-14T05:23:47;4.23;;;1.30;;
17361;SDS011;8798;51.938;4.348;2023-03-14T05:26:15;2.83;;;0.87;;
17361;SDS011;8798;51.938;4.348;2023-03-14T05:28:43;4.03;;;0.93;;
17361;SDS011;8798;51.938;4.348;2023-03-14T05:31:11;2.53;;;0.70;;
17361;SDS011;8798;51.938;4.348;2023-03-14T05:33:41;2.27;;;0.60;;
17361;SDS011;8798;51.938;4.348;2023-03-14T05:36:08;1.67;;;0.50;;
17361;SDS011;8798;51.938;4.348;2023-03-14T05:38:36;3.20;;;0.50;;
17361;SDS011;8798;51.938;4.348;2023-03-14T05:41:04;2.33;;;0.83;;
17361;SDS011;8798;51.938;4.348;2023-03-14T05:43:32;1.97;;;0.37;;
17361;SDS011;8798;51.938;4.348;2023-03-14T05:46:00;1.60;;;0.47;;
17361;SDS011;8798;51.938;4.348;2023-03-14T05:48:28;3.67;;;0.90;;
17361;SDS011;8798;51.938;4.348;2023-03-14T05:50:58;4.33;;;0.70;;
17361;SDS011;8798;51.938;4.348;2023-03-14T05:53:26;1.40;;;0.63;;
17361;SDS011;8798;51.938;4.348;2023-03-14T05:55:55;1.80;;;0.60;;
17361;SDS011;8798;51.938;4.348;2023-03-14T05:58:23;3.23;;;0.70;;
17361;SDS011;8798;51.938;4.348;2023-03-14T06:00:51;4.50;;;0.90;;
17361;SDS011;8798;51.938;4.348;2023-03-14T06:03:19;1.80;;;0.67;;
17361;SDS011;8798;51.938;4.348;2023-03-14T06:05:49;1.17;;;0.47;;
17361;SDS011;8798;51.938;4.348;2023-03-14T06:08:19;2.43;;;0.60;;
17361;SDS011;8798;51.938;4.348;2023-03-14T06:10:46;2.93;;;0.63;;
17361;SDS011;8798;51.938;4.348;2023-03-14T06:13:14;1.23;;;0.50;;
17361;SDS011;8798;51.938;4.348;2023-03-14T06:15:42;9.10;;;1.10;;
17361;SDS011;8798;51.938;4.348;2023-03-14T06:18:10;3.33;;;1.20;;
17361;SDS011;8798;51.938;4.348;2023-03-14T06:20:40;3.07;;;0.50;;
17361;SDS011;8798;51.938;4.348;2023-03-14T06:23:08;3.07;;;0.53;;
17361;SDS011;8798;51.938;4.348;2023-03-14T06:25:38;3.67;;;0.40;;
17361;SDS011;8798;51.938;4.348;2023-03-14T06:28:06;2.27;;;0.43;;
17361;SDS011;8798;51.938;4.348;2023-03-14T06:30:37;3.67;;;0.63;;
17361;SDS011;8798;51.938;4.348;2023-03-14T06:33:07;5.23;;;0.80;;
17361;SDS011;8798;51.938;4.348;2023-03-14T06:35:35;7.07;;;0.80;;
17361;SDS011;8798;51.938;4.348;2023-03-14T06:38:03;4.83;;;0.93;;
17361;SDS011;8798;51.938;4.348;2023-03-14T06:40:31;5.30;;;0.77;;
17361;SDS011;8798;51.938;4.348;2023-03-14T06:43:00;6.37;;;1.30;;
17361;SDS011;8798;51.938;4.348;2023-03-14T06:45:28;4.07;;;0.80;;
17361;SDS011;8798;51.938;4.348;2023-03-14T06:47:56;2.67;;;0.60;;
17361;SDS011;8798;51.938;4.348;2023-03-14T06:50:24;7.83;;;1.00;;
17361;SDS011;8798;51.938;4.348;2023-03-14T06:52:52;3.57;;;0.50;;
17361;SDS011;8798;51.938;4.348;2023-03-14T06:55:20;2.80;;;0.60;;
17361;SDS011;8798;51.938;4.348;2023-03-14T06:57:48;3.20;;;0.50;;
17361;SDS011;8798;51.938;4.348;2023-03-14T07:00:18;3.80;;;0.70;;
17361;SDS011;8798;51.938;4.348;2023-03-14T07:02:46;3.53;;;0.67;;
17361;SDS011;8798;51.938;4.348;2023-03-14T07:05:14;4.60;;;0.70;;
17361;SDS011;8798;51.938;4.348;2023-03-14T07:07:41;2.70;;;0.50;;
17361;SDS011;8798;51.938;4.348;2023-03-14T07:10:10;3.00;;;0.67;;
17361;SDS011;8798;51.938;4.348;2023-03-14T07:12:38;4.53;;;1.03;;
17361;SDS011;8798;51.938;4.348;2023-03-14T07:15:06;1.97;;;0.60;;
17361;SDS011;8798;51.938;4.348;2023-03-14T07:17:45;0.87;;;0.43;;
17361;SDS011;8798;51.938;4.348;2023-03-14T07:20:14;3.13;;;0.77;;
17361;SDS011;8798;51.938;4.348;2023-03-14T07:22:42;2.87;;;0.57;;
17361;SDS011;8798;51.938;4.348;2023-03-14T07:25:10;4.90;;;0.83;;
17361;SDS011;8798;51.938;4.348;2023-03-14T07:27:38;2.13;;;0.47;;
17361;SDS011;8798;51.938;4.348;2023-03-14T07:30:06;3.03;;;0.70;;
17361;SDS011;8798;51.938;4.348;2023-03-14T07:32:35;3.47;;;0.47;;
17361;SDS011;8798;51.938;4.348;2023-03-14T07:35:05;2.60;;;0.70;;
17361;SDS011;8798;51.938;4.348;2023-03-14T07:37:33;3.23;;;0.67;;
17361;SDS011;8798;51.938;4.348;2023-03-14T07:40:01;5.00;;;1.00;;
17361;SDS011;8798;51.938;4.348;2023-03-14T07:42:31;3.10;;;0.53;;
17361;SDS011;8798;51.938;4.348;2023-03-14T07:44:59;2.03;;;0.50;;
17361;SDS011;8798;51.938;4.348;2023-03-14T07:47:27;2.47;;;1.00;;
17361;SDS011;8798;51.938;4.348;2023-03-14T07:49:54;5.03;;;1.00;;
17361;SDS011;8798;51.938;4.348;2023-03-14T07:52:24;2.17;;;0.80;;
17361;SDS011;8798;51.938;4.348;2023-03-14T07:54:52;6.73;;;0.90;;
17361;SDS011;8798;51.938;4.348;2023-03-14T07:57:36;2.90;;;0.87;;
17361;SDS011;8798;51.938;4.348;2023-03-14T08:00:05;4.80;;;0.90;;
17361;SDS011;8798;51.938;4.348;2023-03-14T08:02:41;4.67;;;0.80;;
17361;SDS011;8798;51.938;4.348;2023-03-14T08:05:10;4.27;;;0.93;;
17361;SDS011;8798;51.938;4.348;2023-03-14T08:07:40;6.43;;;0.70;;
17361;SDS011;8798;51.938;4.348;2023-03-14T08:10:08;3.83;;;0.70;;
17361;SDS011;8798;51.938;4.348;2023-03-14T08:12:37;4.30;;;0.80;;
17361;SDS011;8798;51.938;4.348;2023-03-14T08:15:05;3.63;;;0.70;;
17361;SDS011;8798;51.938;4.348;2023-03-14T08:17:33;2.77;;;0.50;;
17361;SDS011;8798;51.938;4.348;2023-03-14T08:20:01;2.83;;;0.40;;
17361;SDS011;8798;51.938;4.348;2023-03-14T08:22:32;1.00;;;0.40;;
17361;SDS011;8798;51.938;4.348;2023-03-14T08:25:02;2.50;;;0.47;;
17361;SDS011;8798;51.938;4.348;2023-03-14T08:27:30;1.80;;;0.70;;
17361;SDS011;8798;51.938;4.348;2023-03-14T08:29:57;3.67;;;1.03;;
17361;SDS011;8798;51.938;4.348;2023-03-14T08:32:25;3.83;;;0.50;;
17361;SDS011;8798;51.938;4.348;2023-03-14T08:34:53;5.07;;;0.57;;
17361;SDS011;8798;51.938;4.348;2023-03-14T08:37:54;1.50;;;0.53;;
17361;SDS011;8798;51.938;4.348;2023-03-14T08:40:24;2.53;;;0.33;;
17361;SDS011;8798;51.938;4.348;2023-03-14T08:42:52;3.97;;;0.77;;
17361;SDS011;8798;51.938;4.348;2023-03-14T08:45:19;2.53;;;0.50;;
17361;SDS011;8798;51.938;4.348;2023-03-14T08:47:47;3.27;;;0.50;;
17361;SDS011;8798;51.938;4.348;2023-03-14T08:50:15;2.30;;;0.53;;
17361;SDS011;8798;51.938;4.348;2023-03-14T08:52:44;4.70;;;1.03;;
17361;SDS011;8798;51.938;4.348;2023-03-14T08:55:11;4.27;;;0.60;;
17361;SDS011;8798;51.938;4.348;2023-03-14T08:57:41;3.43;;;0.80;;
17361;SDS011;8798;51.938;4.348;2023-03-14T09:00:09;2.93;;;0.70;;
17361;SDS011;8798;51.938;4.348;2023-03-14T09:02:41;2.23;;;0.80;;
17361;SDS011;8798;51.938;4.348;2023-03-14T09:05:10;4.07;;;0.73;;
17361;SDS011;8798;51.938;4.348;2023-03-14T09:07:38;5.83;;;0.87;;
17361;SDS011;8798;51.938;4.348;2023-03-14T09:10:06;3.90;;;0.67;;
17361;SDS011;8798;51.938;4.348;2023-03-14T09:12:36;8.73;;;1.20;;
17361;SDS011;8798;51.938;4.348;2023-03-14T09:15:05;6.13;;;1.30;;
17361;SDS011;8798;51.938;4.348;2023-03-14T09:17:34;8.93;;;1.73;;
17361;SDS011;8798;51.938;4.348;2023-03-14T09:20:02;5.73;;;1.10;;
17361;SDS011;8798;51.938;4.348;2023-03-14T09:22:33;8.33;;;1.40;;
17361;SDS011;8798;51.938;4.348;2023-03-14T09:25:02;5.70;;;0.93;;
17361;SDS011;8798;51.938;4.348;2023-03-14T09:27:30;3.83;;;0.87;;
17361;SDS011;8798;51.938;4.348;2023-03-14T09:29:57;7.67;;;1.43;;
17361;SDS011;8798;51.938;4.348;2023-03-14T09:32:27;13.77;;;2.03;;
17361;SDS011;8798;51.938;4.348;2023-03-14T09:35:05;9.13;;;1.60;;
17361;SDS011;8798;51.938;4.348;2023-03-14T09:37:33;14.70;;;1.90;;
17361;SDS011;8798;51.938;4.348;2023-03-14T09:40:00;3.40;;;1.17;;
17361;SDS011;8798;51.938;4.348;2023-03-14T09:42:35;11.50;;;1.60;;
17361;SDS011;8798;51.938;4.348;2023-03-14T09:45:06;9.50;;;1.53;;
17361;SDS011;8798;51.938;4.348;2023-03-14T09:47:39;4.13;;;0.80;;
17361;SDS011;8798;51.938;4.348;2023-03-14T09:50:24;4.83;;;1.10;;
17361;SDS011;8798;51.938;4.348;2023-03-14T09:52:56;0.43;;;0.30;;
17361;SDS011;8798;51.938;4.348;2023-03-14T09:55:28;11.33;;;1.17;;
17361;SDS011;8798;51.938;4.348;2023-03-14T09:57:57;10.43;;;1.70;;
17361;SDS011;8798;51.938;4.348;2023-03-14T10:00:28;4.20;;;0.60;;
17361;SDS011;8798;51.938;4.348;2023-03-14T10:03:00;8.60;;;1.60;;
17361;SDS011;8798;51.938;4.348;2023-03-14T10:05:47;12.07;;;2.00;;
17361;SDS011;8798;51.938;4.348;2023-03-14T10:08:15;6.73;;;1.93;;
17361;SDS011;8798;51.938;4.348;2023-03-14T10:10:43;6.33;;;1.23;;
17361;SDS011;8798;51.938;4.348;2023-03-14T10:13:13;10.10;;;2.43;;
17361;SDS011;8798;51.938;4.348;2023-03-14T10:15:47;9.57;;;2.03;;
17361;SDS011;8798;51.938;4.348;2023-03-14T10:18:19;11.37;;;2.10;;
17361;SDS011;8798;51.938;4.348;2023-03-14T10:21:01;12.30;;;2.60;;
17361;SDS011;8798;51.938;4.348;2023-03-14T10:23:33;10.93;;;1.93;;
17361;SDS011;8798;51.938;4.348;2023-03-14T10:26:06;6.97;;;1.10;;
17361;SDS011;8798;51.938;4.348;2023-03-14T10:28:38;11.10;;;1.67;;
17361;SDS011;8798;51.938;4.348;2023-03-14T10:31:07;9.17;;;1.40;;
17361;SDS011;8798;51.938;4.348;2023-03-14T10:33:36;8.87;;;1.70;;
17361;SDS011;8798;51.938;4.348;2023-03-14T10:36:06;5.50;;;1.10;;
17361;SDS011;8798;51.938;4.348;2023-03-14T10:38:45;7.17;;;1.43;;
17361;SDS011;8798;51.938;4.348;2023-03-14T10:41:14;12.60;;;2.60;;
17361;SDS011;8798;51.938;4.348;2023-03-14T10:43:44;18.33;;;2.17;;
17361;SDS011;8798;51.938;4.348;2023-03-14T10:46:14;9.93;;;2.03;;
17361;SDS011;8798;51.938;4.348;2023-03-14T10:48:47;8.07;;;1.53;;
17361;SDS011;8798;51.938;4.348;2023-03-14T10:51:18;13.93;;;1.70;;
17361;SDS011;8798;51.938;4.348;2023-03-14T10:53:55;13.97;;;1.80;;
17361;SDS011;8798;51.938;4.348;2023-03-14T10:56:24;10.17;;;1.97;;
17361;SDS011;8798;51.938;4.348;2023-03-14T10:58:55;12.90;;;2.30;;
17361;SDS011;8798;51.938;4.348;2023-03-14T11:01:31;9.03;;;1.83;;
17361;SDS011;8798;51.938;4.348;2023-03-14T11:04:10;12.77;;;1.90;;
17361;SDS011;8798;51.938;4.348;2023-03-14T11:06:48;8.87;;;1.70;;
17361;SDS011;8798;51.938;4.348;2023-03-14T11:09:25;6.20;;;0.97;;
17361;SDS011;8798;51.938;4.348;2023-03-14T11:12:01;5.93;;;0.77;;
17361;SDS011;8798;51.938;4.348;2023-03-14T11:14:43;8.90;;;2.00;;
17361;SDS011;8798;51.938;4.348;2023-03-14T11:17:20;15.33;;;2.13;;
17361;SDS011;8798;51.938;4.348;2023-03-14T11:19:59;6.73;;;1.63;;
17361;SDS011;8798;51.938;4.348;2023-03-14T11:22:41;9.50;;;1.33;;
17361;SDS011;8798;51.938;4.348;2023-03-14T11:25:18;12.37;;;2.07;;
17361;SDS011;8798;51.938;4.348;2023-03-14T11:27:56;8.00;;;1.07;;
17361;SDS011;8798;51.938;4.348;2023-03-14T11:30:33;9.27;;;1.23;;
17361;SDS011;8798;51.938;4.348;2023-03-14T11:33:04;9.17;;;1.33;;
17361;SDS011;8798;51.938;4.348;2023-03-14T11:35:43;3.90;;;1.70;;
17361;SDS011;8798;51.938;4.348;2023-03-14T11:38:19;8.13;;;1.60;;
17361;SDS011;8798;51.938;4.348;2023-03-14T11:40:56;2.07;;;0.80;;
17361;SDS011;8798;51.938;4.348;2023-03-14T11:43:27;9.03;;;1.60;;
17361;SDS011;8798;51.938;4.348;2023-03-14T11:46:04;4.47;;;0.87;;
17361;SDS011;8798;51.938;4.348;2023-03-14T11:48:37;7.60;;;1.40;;
17361;SDS011;8798;51.938;4.348;2023-03-14T11:51:12;6.67;;;0.77;;
17361;SDS011;8798;51.938;4.348;2023-03-14T11:53:50;9.83;;;1.70;;
17361;SDS011;8798;51.938;4.348;2023-03-14T11:56:25;5.70;;;0.90;;
17361;SDS011;8798;51.938;4.348;2023-03-14T11:58:59;6.57;;;1.17;;
17361;SDS011;8798;51.938;4.348;2023-03-14T12:01:33;3.07;;;1.10;;
17361;SDS011;8798;51.938;4.348;2023-03-14T12:04:13;6.93;;;1.13;;
17361;SDS011;8798;51.938;4.348;2023-03-14T12:06:48;8.17;;;1.63;;
17361;SDS011;8798;51.938;4.348;2023-03-14T12:09:17;12.33;;;1.67;;
17361;SDS011;8798;51.938;4.348;2023-03-14T12:11:47;6.27;;;1.70;;
17361;SDS011;8798;51.938;4.348;2023-03-14T12:14:20;9.73;;;1.27;;
17361;SDS011;8798;51.938;4.348;2023-03-14T12:16:52;5.47;;;1.00;;
17361;SDS011;8798;51.938;4.348;2023-03-14T12:19:28;5.00;;;0.90;;
17361;SDS011;8798;51.938;4.348;2023-03-14T12:22:05;8.70;;;1.30;;
17361;SDS011;8798;51.938;4.348;2023-03-14T12:24:44;7.37;;;1.47;;
17361;SDS011;8798;51.938;4.348;2023-03-14T12:30:15;3.33;;;0.63;;
17361;SDS011;8798;51.938;4.348;2023-03-14T12:35:48;9.37;;;1.77;;
17361;SDS011;8798;51.938;4.348;2023-03-14T12:38:21;4.80;;;1.00;;
17361;SDS011;8798;51.938;4.348;2023-03-14T12:40:58;6.67;;;1.13;;
17361;SDS011;8798;51.938;4.348;2023-03-14T12:43:30;5.50;;;1.10;;
17361;SDS011;8798;51.938;4.348;2023-03-14T12:46:07;6.37;;;1.13;;
17361;SDS011;8798;51.938;4.348;2023-03-14T12:48:56;6.20;;;0.90;;
17361;SDS011;8798;51.938;4.348;2023-03-14T12:51:34;2.00;;;0.60;;
17361;SDS011;8798;51.938;4.348;2023-03-14T12:57:02;5.53;;;1.13;;
17361;SDS011;8798;51.938;4.348;2023-03-14T12:59:37;4.97;;;0.93;;
17361;SDS011;8798;51.938;4.348;2023-03-14T13:04:59;4.53;;;1.00;;
17361;SDS011;8798;51.938;4.348;2023-03-14T13:07:31;11.37;;;1.20;;
17361;SDS011;8798;51.938;4.348;2023-03-14T13:10:03;5.77;;;0.87;;
17361;SDS011;8798;51.938;4.348;2023-03-14T13:12:43;2.93;;;0.60;;
17361;SDS011;8798;51.938;4.348;2023-03-14T13:15:17;7.00;;;1.13;;
17361;SDS011;8798;51.938;4.348;2023-03-14T13:17:47;3.67;;;0.60;;
17361;SDS011;8798;51.938;4.348;2023-03-14T13:20:19;5.47;;;0.60;;
17361;SDS011;8798;51.938;4.348;2023-03-14T13:22:52;6.10;;;1.00;;
17361;SDS011;8798;51.938;4.348;2023-03-14T13:25:21;6.83;;;0.83;;
17361;SDS011;8798;51.938;4.348;2023-03-14T13:27:49;2.83;;;0.83;;
17361;SDS011;8798;51.938;4.348;2023-03-14T13:30:22;5.97;;;1.70;;
17361;SDS011;8798;51.938;4.348;2023-03-14T13:32:53;6.27;;;1.10;;
17361;SDS011;8798;51.938;4.348;2023-03-14T13:35:24;4.77;;;0.97;;
17361;SDS011;8798;51.938;4.348;2023-03-14T13:37:57;7.67;;;1.10;;
17361;SDS011;8798;51.938;4.348;2023-03-14T13:40:38;3.10;;;0.73;;
17361;SDS011;8798;51.938;4.348;2023-03-14T13:43:11;6.27;;;1.20;;
17361;SDS011;8798;51.938;4.348;2023-03-14T13:45:49;5.17;;;0.73;;
17361;SDS011;8798;51.938;4.348;2023-03-14T13:48:19;7.07;;;1.30;;
17361;SDS011;8798;51.938;4.348;2023-03-14T13:50:52;2.97;;;0.80;;
17361;SDS011;8798;51.938;4.348;2023-03-14T13:53:22;4.43;;;0.90;;
17361;SDS011;8798;51.938;4.348;2023-03-14T13:55:52;7.10;;;1.20;;
17361;SDS011;8798;51.938;4.348;2023-03-14T13:58:22;2.33;;;0.50;;
17361;SDS011;8798;51.938;4.348;2023-03-14T14:01:02;5.67;;;0.80;;
17361;SDS011;8798;51.938;4.348;2023-03-14T14:03:33;3.57;;;0.87;;
17361;SDS011;8798;51.938;4.348;2023-03-14T14:06:05;6.87;;;1.10;;
17361;SDS011;8798;51.938;4.348;2023-03-14T14:08:40;8.20;;;0.80;;
17361;SDS011;8798;51.938;4.348;2023-03-14T14:11:11;3.70;;;0.93;;
17361;SDS011;8798;51.938;4.348;2023-03-14T14:13:55;3.37;;;0.67;;
17361;SDS011;8798;51.938;4.348;2023-03-14T14:16:24;3.63;;;0.70;;
17361;SDS011;8798;51.938;4.348;2023-03-14T14:19:02;10.07;;;1.20;;
17361;SDS011;8798;51.938;4.348;2023-03-14T14:21:31;6.90;;;0.90;;
17361;SDS011;8798;51.938;4.348;2023-03-14T14:24:03;5.20;;;0.93;;
17361;SDS011;8798;51.938;4.348;2023-03-14T14:26:35;4.13;;;1.20;;
17361;SDS011;8798;51.938;4.348;2023-03-14T14:29:18;6.53;;;1.20;;
17361;SDS011;8798;51.938;4.348;2023-03-14T14:32:01;5.27;;;1.27;;
17361;SDS011;8798;51.938;4.348;2023-03-14T14:34:37;5.53;;;1.10;;
17361;SDS011;8798;51.938;4.348;2023-03-14T14:37:15;7.50;;;1.20;;
17361;SDS011;8798;51.938;4.348;2023-03-14T14:39:53;9.03;;;1.10;;
17361;SDS011;8798;51.938;4.348;2023-03-14T14:42:26;3.43;;;0.80;;
17361;SDS011;8798;51.938;4.348;2023-03-14T14:44:57;4.17;;;1.10;;
17361;SDS011;8798;51.938;4.348;2023-03-14T14:47:26;3.03;;;0.47;;
17361;SDS011;8798;51.938;4.348;2023-03-14T14:49:58;3.77;;;0.60;;
17361;SDS011;8798;51.938;4.348;2023-03-14T14:52:31;3.63;;;0.70;;
17361;SDS011;8798;51.938;4.348;2023-03-14T14:55:11;1.40;;;0.40;;
17361;SDS011;8798;51.938;4.348;2023-03-14T14:57:42;4.63;;;0.83;;
17361;SDS011;8798;51.938;4.348;2023-03-14T15:00:17;10.23;;;0.80;;
17361;SDS011;8798;51.938;4.348;2023-03-14T15:02:48;3.80;;;0.60;;
17361;SDS011;8798;51.938;4.348;2023-03-14T15:05:21;8.67;;;1.27;;
17361;SDS011;8798;51.938;4.348;2023-03-14T15:07:50;3.97;;;0.90;;
17361;SDS011;8798;51.938;4.348;2023-03-14T15:10:19;2.70;;;0.60;;
17361;SDS011;8798;51.938;4.348;2023-03-14T15:12:49;2.73;;;0.80;;
17361;SDS011;8798;51.938;4.348;2023-03-14T15:15:17;3.10;;;0.70;;
17361;SDS011;8798;51.938;4.348;2023-03-14T15:17:46;1.97;;;0.87;;
17361;SDS011;8798;51.938;4.348;2023-03-14T15:20:15;3.43;;;0.80;;
17361;SDS011;8798;51.938;4.348;2023-03-14T15:22:44;2.87;;;0.80;;
17361;SDS011;8798;51.938;4.348;2023-03-14T15:25:12;2.40;;;0.60;;
17361;SDS011;8798;51.938;4.348;2023-03-14T15:28:02;6.33;;;0.83;;
17361;SDS011;8798;51.938;4.348;2023-03-14T15:30:30;3.40;;;0.50;;
17361;SDS011;8798;51.938;4.348;2023-03-14T15:32:58;4.97;;;0.87;;
17361;SDS011;8798;51.938;4.348;2023-03-14T15:35:25;6.87;;;1.10;;